createdAt,value
2023-03-16T00:00:19.020Z,57.40
2023-03-16T00:02:47.856Z,57.50
2023-03-16T00:05:15.529Z,57.70
2023-03-16T00:07:42.986Z,57.60
2023-03-16T00:10:13.920Z,57.80
2023-03-16T00:12:43.633Z,57.80
2023-03-16T00:15:12.425Z,57.80
2023-03-16T00:17:39.570Z,57.90
2023-03-16T00:20:07.392Z,57.90
2023-03-16T00:22:34.668Z,58.00
2023-03-16T00:25:02.018Z,58.00
2023-03-16T00:27:29.583Z,58.00
2023-03-16T00:29:57.055Z,58.20
2023-03-16T00:32:29.708Z,58.30
2023-03-16T00:34:56.947Z,58.30
2023-03-16T00:37:25.388Z,58.30
2023-03-16T00:39:56.163Z,58.50
2023-03-16T00:42:28.697Z,58.60
2023-03-16T00:44:57.282Z,58.70
2023-03-16T00:47:32.802Z,58.70
2023-03-16T00:50:01.092Z,58.80
2023-03-16T00:52:28.746Z,58.80
2023-03-16T00:54:58.783Z,58.90
2023-03-16T00:57:28.671Z,59.00
2023-03-16T00:59:56.139Z,59.00
2023-03-16T01:02:24.750Z,59.10
2023-03-16T01:04:54.443Z,59.10
2023-03-16T01:07:24.867Z,59.20
2023-03-16T01:09:54.528Z,59.00
2023-03-16T01:12:21.679Z,59.00
2023-03-16T01:14:48.954Z,59.00
2023-03-16T01:17:17.298Z,59.10
2023-03-16T01:19:44.710Z,59.20
2023-03-16T01:22:12.265Z,59.20
2023-03-16T01:24:39.720Z,59.30
2023-03-16T01:27:07.683Z,59.50
2023-03-16T01:29:35.269Z,59.50
2023-03-16T01:32:04.012Z,59.50
2023-03-16T01:34:31.999Z,59.50
2023-03-16T01:36:59.859Z,59.50
2023-03-16T01:39:48.712Z,59.70
2023-03-16T01:42:16.133Z,59.70
2023-03-16T01:44:55.806Z,59.80
2023-03-16T01:47:27.872Z,60.00
2023-03-16T01:49:56.229Z,59.70
2023-03-16T01:52:29.214Z,59.90
2023-03-16T01:55:08.904Z,60.00
2023-03-16T01:57:39.811Z,59.90
2023-03-16T02:00:18.580Z,60.00
2023-03-16T02:03:07.820Z,60.20
2023-03-16T02:06:08.438Z,60.10
2023-03-16T02:08:37.718Z,60.30
2023-03-16T02:11:05.690Z,60.30
2023-03-16T02:13:47.274Z,60.30
2023-03-16T02:16:19.396Z,60.40
2023-03-16T02:18:47.440Z,60.30
2023-03-16T02:22:02.159Z,60.50
2023-03-16T02:24:30.804Z,60.70
2023-03-16T02:27:10.360Z,60.40
2023-03-16T02:30:18.143Z,60.60
2023-03-16T02:33:06.128Z,60.70
2023-03-16T02:35:33.641Z,60.80
2023-03-16T02:38:01.960Z,61.00
2023-03-16T02:40:34.466Z,60.90
2023-03-16T02:43:15.615Z,60.90
2023-03-16T02:45:54.993Z,61.00
2023-03-16T02:48:48.118Z,61.10
2023-03-16T02:51:15.393Z,61.20
2023-03-16T02:53:43.018Z,61.00
2023-03-16T02:56:10.254Z,61.10
2023-03-16T02:58:37.834Z,61.10
2023-03-16T03:01:10.316Z,61.30
2023-03-16T03:03:38.714Z,61.20
2023-03-16T03:06:06.234Z,61.20
2023-03-16T03:08:36.308Z,61.20
2023-03-16T03:11:03.781Z,61.10
2023-03-16T03:13:31.687Z,61.10
2023-03-16T03:16:00.189Z,61.20
2023-03-16T03:18:28.490Z,61.50
2023-03-16T03:20:55.702Z,61.50
2023-03-16T03:23:23.689Z,61.60
2023-03-16T03:25:50.883Z,61.70
2023-03-16T03:28:18.599Z,61.50
2023-03-16T03:30:46.205Z,61.50
2023-03-16T03:33:13.367Z,61.50
2023-03-16T03:35:42.151Z,61.40
2023-03-16T03:38:09.690Z,61.40
2023-03-16T03:40:37.098Z,61.30
2023-03-16T03:43:05.426Z,61.40
2023-03-16T03:45:37.046Z,61.50
2023-03-16T03:48:04.643Z,61.50
2023-03-16T03:50:31.790Z,61.60
2023-03-16T03:53:37.341Z,61.80
2023-03-16T03:56:17.252Z,61.70
2023-03-16T03:58:44.450Z,61.70
2023-03-16T04:01:14.569Z,61.80
2023-03-16T04:03:45.053Z,61.80
2023-03-16T04:06:14.836Z,61.80
2023-03-16T04:08:42.064Z,61.70
2023-03-16T04:11:12.005Z,61.70
2023-03-16T04:13:39.942Z,61.80
2023-03-16T04:16:07.523Z,61.70
2023-03-16T04:18:41.418Z,61.90
2023-03-16T04:21:15.890Z,61.40
2023-03-16T04:23:43.985Z,62.00
2023-03-16T04:26:11.218Z,62.10
2023-03-16T04:28:38.579Z,62.30
2023-03-16T04:31:08.103Z,62.20
2023-03-16T04:33:40.399Z,62.40
2023-03-16T04:36:09.174Z,62.30
2023-03-16T04:38:38.342Z,62.30
2023-03-16T04:41:08.788Z,62.40
2023-03-16T04:43:41.134Z,62.40
2023-03-16T04:46:18.552Z,62.50
2023-03-16T04:48:45.975Z,62.50
2023-03-16T04:51:13.172Z,62.40
2023-03-16T04:53:46.850Z,62.30
2023-03-16T04:56:21.573Z,62.30
2023-03-16T04:58:56.927Z,62.30
2023-03-16T05:01:25.867Z,62.40
2023-03-16T05:03:59.225Z,62.30
2023-03-16T05:06:27.396Z,62.20
2023-03-16T05:08:55.338Z,62.30
2023-03-16T05:11:31.009Z,62.30
2023-03-16T05:14:02.187Z,62.40
2023-03-16T05:16:31.122Z,62.20
2023-03-16T05:18:59.613Z,62.20
2023-03-16T05:21:34.302Z,62.20
2023-03-16T05:24:06.398Z,62.50
2023-03-16T05:26:33.949Z,62.60
2023-03-16T05:29:01.936Z,62.50
2023-03-16T05:31:32.761Z,62.70
2023-03-16T05:34:02.467Z,62.50
2023-03-16T05:36:29.609Z,62.50
2023-03-16T05:39:04.608Z,62.50
2023-03-16T05:41:37.837Z,62.50
2023-03-16T05:44:14.207Z,62.50
2023-03-16T05:46:56.862Z,62.40
2023-03-16T05:49:24.228Z,62.50
2023-03-16T05:51:52.030Z,62.30
2023-03-16T05:54:19.328Z,62.30
2023-03-16T05:56:48.281Z,62.10
2023-03-16T05:59:18.056Z,62.10
2023-03-16T06:01:50.278Z,62.30
2023-03-16T06:04:18.347Z,62.50
2023-03-16T06:06:45.513Z,62.50
2023-03-16T06:09:19.461Z,62.50
2023-03-16T06:11:46.657Z,62.60
2023-03-16T06:14:16.316Z,62.60
2023-03-16T06:16:44.300Z,62.30
2023-03-16T06:19:11.597Z,62.10
2023-03-16T06:21:39.005Z,61.80
2023-03-16T06:24:10.078Z,61.40
2023-03-16T06:26:41.254Z,61.20
2023-03-16T06:29:11.891Z,60.90
2023-03-16T06:31:41.009Z,60.80
2023-03-16T06:34:08.536Z,60.70
2023-03-16T06:36:35.798Z,60.70
2023-03-16T06:39:05.276Z,60.30
2023-03-16T06:41:36.935Z,60.20
2023-03-16T06:44:06.108Z,60.00
2023-03-16T06:46:36.574Z,60.00
2023-03-16T06:49:05.579Z,60.00
2023-03-16T06:51:33.455Z,59.80
2023-03-16T06:54:01.496Z,60.00
2023-03-16T06:56:29.585Z,59.80
2023-03-16T06:58:56.850Z,59.80
2023-03-16T07:01:24.303Z,59.90
2023-03-16T07:03:51.909Z,59.70
2023-03-16T07:06:34.896Z,60.10
2023-03-16T07:09:02.255Z,59.50
2023-03-16T07:11:32.684Z,59.10
2023-03-16T07:14:00.122Z,59.10
2023-03-16T07:16:28.520Z,59.00
2023-03-16T07:18:58.503Z,59.00
2023-03-16T07:21:25.850Z,59.50
2023-03-16T07:23:53.406Z,59.40
2023-03-16T07:26:25.030Z,59.30
2023-03-16T07:28:58.808Z,59.10
2023-03-16T07:31:26.760Z,59.10
2023-03-16T07:33:57.429Z,59.20
2023-03-16T07:36:33.541Z,59.10
2023-03-16T07:39:02.487Z,59.20
2023-03-16T07:41:31.678Z,58.90
2023-03-16T07:44:21.754Z,58.70
2023-03-16T07:46:49.590Z,58.50
2023-03-16T07:49:20.224Z,58.80
2023-03-16T07:51:52.285Z,58.60
2023-03-16T07:54:24.371Z,58.60
2023-03-16T07:56:51.745Z,58.60
2023-03-16T07:59:29.773Z,58.60
2023-03-16T08:01:58.702Z,58.80
2023-03-16T08:04:25.933Z,58.70
2023-03-16T08:06:59.786Z,58.70
2023-03-16T08:09:31.778Z,58.70
2023-03-16T08:11:59.101Z,58.70
2023-03-16T08:14:26.332Z,58.70
2023-03-16T08:17:10.353Z,58.70
2023-03-16T08:19:38.857Z,58.60
2023-03-16T08:22:08.851Z,58.70
2023-03-16T08:24:40.763Z,58.90
2023-03-16T08:27:09.950Z,58.90
2023-03-16T08:29:40.704Z,58.70
2023-03-16T08:32:12.430Z,58.60
2023-03-16T08:34:44.070Z,58.60
2023-03-16T08:37:14.910Z,58.40
2023-03-16T08:39:42.303Z,58.20
2023-03-16T08:42:15.255Z,58.30
2023-03-16T08:44:47.830Z,58.00
2023-03-16T08:47:16.846Z,58.00
2023-03-16T08:49:45.029Z,57.80
2023-03-16T08:52:15.929Z,57.60
2023-03-16T08:54:59.848Z,57.10
2023-03-16T08:57:29.039Z,57.00
2023-03-16T08:59:59.265Z,56.60
2023-03-16T09:02:26.713Z,56.50
2023-03-16T09:04:56.455Z,56.60
2023-03-16T09:07:23.784Z,56.20
2023-03-16T09:09:54.620Z,56.00
2023-03-16T09:12:22.433Z,55.60
2023-03-16T09:14:54.331Z,55.50
2023-03-16T09:17:22.403Z,55.30
2023-03-16T09:19:52.405Z,55.30
2023-03-16T09:22:25.805Z,55.20
2023-03-16T09:24:53.065Z,55.10
2023-03-16T09:27:20.797Z,55.00
2023-03-16T09:29:48.880Z,55.10
2023-03-16T09:32:16.346Z,55.10
2023-03-16T09:34:46.231Z,54.80
2023-03-16T09:37:13.471Z,54.50
2023-03-16T09:39:43.659Z,54.20
2023-03-16T09:42:24.005Z,54.30
2023-03-16T09:44:58.688Z,54.30
2023-03-16T09:47:31.256Z,54.10
2023-03-16T09:50:05.666Z,54.50
2023-03-16T09:52:56.546Z,53.50
2023-03-16T09:55:33.262Z,54.10
2023-03-16T09:58:01.182Z,53.90
2023-03-16T10:00:34.223Z,54.00
2023-03-16T10:03:38.935Z,53.80
2023-03-16T10:06:12.397Z,53.90
2023-03-16T10:09:15.368Z,53.80
2023-03-16T10:11:47.000Z,53.30
2023-03-16T10:14:20.268Z,53.30
2023-03-16T10:17:08.280Z,53.00
2023-03-16T10:19:54.762Z,52.00
2023-03-16T10:22:41.023Z,51.30
2023-03-16T10:25:16.230Z,51.40
2023-03-16T10:27:44.776Z,51.20
2023-03-16T10:30:50.301Z,51.10
2023-03-16T10:33:31.471Z,51.20
2023-03-16T10:36:19.295Z,52.10
2023-03-16T10:38:50.750Z,51.60
2023-03-16T10:41:21.543Z,51.40
2023-03-16T10:44:12.534Z,51.10
2023-03-16T10:46:48.798Z,50.80
2023-03-16T10:49:29.704Z,50.00
2023-03-16T10:52:02.989Z,49.50
2023-03-16T10:54:40.789Z,49.50
2023-03-16T10:57:20.906Z,49.00
2023-03-16T10:59:53.131Z,48.80
2023-03-16T11:02:23.692Z,48.90
2023-03-16T11:04:51.257Z,48.60
2023-03-16T11:07:20.136Z,48.90
2023-03-16T11:09:50.832Z,48.50
2023-03-16T11:12:26.758Z,47.90
2023-03-16T11:14:54.729Z,47.40
2023-03-16T11:17:34.007Z,47.60
2023-03-16T11:20:14.887Z,47.60
2023-03-16T11:22:42.071Z,46.90
2023-03-16T11:25:17.277Z,47.30
2023-03-16T11:28:08.404Z,47.20
2023-03-16T11:30:41.610Z,47.10
2023-03-16T11:33:14.132Z,47.00
2023-03-16T11:36:08.956Z,46.70
2023-03-16T11:38:48.533Z,45.40
2023-03-16T11:41:27.851Z,45.50
2023-03-16T11:44:01.476Z,44.70
2023-03-16T11:47:00.632Z,45.00
2023-03-16T11:50:19.278Z,44.80
2023-03-16T11:53:07.170Z,45.00
2023-03-16T11:56:05.508Z,45.00
2023-03-16T11:59:01.435Z,44.60
2023-03-16T12:01:59.833Z,44.90
2023-03-16T12:04:40.919Z,44.60
2023-03-16T12:07:47.809Z,44.30
2023-03-16T12:10:36.355Z,44.20
2023-03-16T12:13:22.939Z,43.70
2023-03-16T12:15:53.417Z,43.30
2023-03-16T12:18:51.641Z,43.10
2023-03-16T12:21:42.099Z,43.00
2023-03-16T12:24:19.189Z,43.50
2023-03-16T12:26:49.567Z,43.50
2023-03-16T12:29:17.080Z,43.40
2023-03-16T12:31:55.189Z,43.40
2023-03-16T12:34:53.748Z,43.40
2023-03-16T12:37:49.103Z,43.20
2023-03-16T12:40:43.275Z,43.60
2023-03-16T12:43:31.755Z,43.70
2023-03-16T12:46:07.766Z,44.30
2023-03-16T12:48:44.998Z,44.50
2023-03-16T12:51:12.216Z,44.20
2023-03-16T12:53:46.729Z,44.20
2023-03-16T12:56:27.963Z,44.20
2023-03-16T12:59:03.438Z,43.90
2023-03-16T13:01:53.033Z,44.20
2023-03-16T13:04:23.612Z,44.20
2023-03-16T13:06:52.500Z,44.50
2023-03-16T13:09:23.185Z,44.50
2023-03-16T13:11:50.524Z,44.10
2023-03-16T13:14:36.316Z,43.80
2023-03-16T13:17:07.129Z,43.50
2023-03-16T13:19:37.945Z,43.60
2023-03-16T13:22:27.088Z,43.10
2023-03-16T13:25:25.513Z,42.70
2023-03-16T13:27:55.351Z,43.40
2023-03-16T13:30:24.441Z,43.50
2023-03-16T13:32:56.916Z,42.60
2023-03-16T13:35:28.214Z,42.30
2023-03-16T13:37:55.382Z,42.40
2023-03-16T13:40:25.503Z,42.80
2023-03-16T13:42:54.794Z,42.80
2023-03-16T13:45:32.731Z,43.00
2023-03-16T13:48:01.840Z,43.00
2023-03-16T13:50:36.178Z,42.70
2023-03-16T13:53:04.500Z,41.60
2023-03-16T13:55:36.646Z,42.70
2023-03-16T13:58:04.176Z,41.90
2023-03-16T14:00:34.776Z,41.80
2023-03-16T14:03:16.301Z,42.00
2023-03-16T14:05:43.955Z,41.50
2023-03-16T14:08:23.596Z,41.80
2023-03-16T14:10:51.240Z,41.30
2023-03-16T14:13:36.257Z,41.20
2023-03-16T14:16:16.660Z,40.80
2023-03-16T14:18:49.322Z,40.90
2023-03-16T14:21:27.696Z,41.30
2023-03-16T14:23:59.403Z,41.00
2023-03-16T14:26:27.077Z,41.20
2023-03-16T14:29:25.009Z,40.70
2023-03-16T14:31:52.404Z,40.80
2023-03-16T14:34:40.875Z,40.80
2023-03-16T14:37:13.440Z,40.80
2023-03-16T14:39:41.181Z,41.20
2023-03-16T14:42:22.256Z,40.90
2023-03-16T14:44:49.783Z,39.40
2023-03-16T14:47:24.099Z,40.00
2023-03-16T14:49:51.371Z,39.20
2023-03-16T14:52:26.304Z,40.70
2023-03-16T14:54:55.358Z,39.60
2023-03-16T14:57:24.955Z,39.30
2023-03-16T14:59:53.383Z,38.90
2023-03-16T15:02:25.111Z,39.20
2023-03-16T15:04:52.637Z,39.80
2023-03-16T15:07:32.382Z,40.00
2023-03-16T15:10:46.125Z,40.10
2023-03-16T15:13:40.591Z,40.20
2023-03-16T15:16:12.587Z,40.10
2023-03-16T15:18:41.952Z,40.10
2023-03-16T15:21:25.349Z,39.70
2023-03-16T15:23:52.618Z,39.80
2023-03-16T15:26:25.182Z,39.90
2023-03-16T15:28:55.797Z,39.70
2023-03-16T15:31:25.472Z,40.20
2023-03-16T15:33:52.676Z,39.80
2023-03-16T15:36:24.885Z,40.20
2023-03-16T15:38:55.725Z,40.10
2023-03-16T15:41:30.060Z,40.40
2023-03-16T15:44:06.977Z,40.80
2023-03-16T15:46:44.932Z,40.50
2023-03-16T15:49:12.261Z,40.60
2023-03-16T15:51:40.795Z,40.60
2023-03-16T15:54:08.566Z,40.50
2023-03-16T15:56:53.243Z,40.80
2023-03-16T15:59:23.966Z,40.80
2023-03-16T16:01:51.850Z,40.30
2023-03-16T16:04:23.517Z,40.00
2023-03-16T16:06:55.334Z,39.80
2023-03-16T16:09:27.823Z,39.80
2023-03-16T16:11:55.044Z,39.90
2023-03-16T16:14:24.876Z,40.60
2023-03-16T16:16:52.184Z,40.60
2023-03-16T16:19:20.220Z,40.90
2023-03-16T16:21:48.002Z,40.90
2023-03-16T16:24:15.812Z,41.00
2023-03-16T16:26:54.805Z,40.60
2023-03-16T16:29:25.302Z,40.90
2023-03-16T16:31:52.731Z,40.70
2023-03-16T16:34:24.392Z,41.10
2023-03-16T16:36:52.156Z,40.90
2023-03-16T16:39:20.520Z,40.90
2023-03-16T16:41:48.604Z,40.70
2023-03-16T16:44:35.275Z,41.10
2023-03-16T16:47:03.877Z,41.20
2023-03-16T16:49:32.293Z,41.20
2023-03-16T16:51:59.679Z,41.20
2023-03-16T16:54:31.209Z,41.70
2023-03-16T16:57:01.583Z,41.60
2023-03-16T16:59:28.677Z,41.60
2023-03-16T17:01:57.478Z,41.90
2023-03-16T17:04:29.825Z,42.10
2023-03-16T17:07:00.850Z,41.90
2023-03-16T17:09:28.960Z,41.80
2023-03-16T17:12:00.485Z,41.90
2023-03-16T17:14:28.389Z,41.90
2023-03-16T17:16:58.430Z,41.50
2023-03-16T17:19:28.144Z,41.40
2023-03-16T17:21:57.446Z,41.60
2023-03-16T17:24:24.926Z,42.00
2023-03-16T17:27:01.308Z,42.20
2023-03-16T17:29:33.885Z,42.30
2023-03-16T17:32:02.904Z,42.30
2023-03-16T17:34:35.083Z,42.40
2023-03-16T17:37:02.754Z,42.60
2023-03-16T17:39:34.458Z,43.20
2023-03-16T17:42:07.717Z,43.50
2023-03-16T17:44:44.714Z,43.40
2023-03-16T17:47:22.025Z,43.80
2023-03-16T17:49:50.885Z,44.30
2023-03-16T17:52:25.484Z,44.40
2023-03-16T17:54:56.326Z,44.60
2023-03-16T17:57:28.295Z,44.80
2023-03-16T17:59:59.234Z,44.50
2023-03-16T18:02:50.208Z,44.70
2023-03-16T18:05:34.595Z,44.70
2023-03-16T18:08:25.978Z,45.00
2023-03-16T18:10:59.845Z,45.40
2023-03-16T18:13:32.595Z,45.70
2023-03-16T18:16:00.046Z,45.80
2023-03-16T18:18:29.775Z,46.00
2023-03-16T18:20:58.152Z,46.20
2023-03-16T18:23:27.683Z,46.40
2023-03-16T18:25:56.157Z,46.40
2023-03-16T18:28:23.420Z,46.80
2023-03-16T18:30:54.680Z,47.10
2023-03-16T18:33:39.562Z,47.30
2023-03-16T18:36:13.466Z,47.70
2023-03-16T18:38:43.592Z,47.80
2023-03-16T18:41:28.515Z,47.90
2023-03-16T18:43:58.000Z,48.10
2023-03-16T18:46:34.436Z,48.00
2023-03-16T18:49:43.645Z,48.60
2023-03-16T18:52:28.005Z,48.40
2023-03-16T18:54:55.817Z,48.80
2023-03-16T18:57:28.057Z,48.90
2023-03-16T18:59:55.357Z,49.20
2023-03-16T19:02:38.799Z,49.10
2023-03-16T19:05:15.929Z,49.20
2023-03-16T19:07:47.640Z,49.30
2023-03-16T19:10:38.280Z,49.60
2023-03-16T19:13:17.264Z,49.20
2023-03-16T19:15:45.246Z,49.10
2023-03-16T19:18:20.120Z,49.20
2023-03-16T19:20:50.164Z,49.20
2023-03-16T19:23:31.323Z,49.40
2023-03-16T19:25:58.658Z,49.50
2023-03-16T19:28:36.139Z,49.60
2023-03-16T19:31:26.234Z,49.60
2023-03-16T19:36:39.120Z,49.70
2023-03-16T19:39:15.555Z,49.60
2023-03-16T19:41:47.621Z,49.60
2023-03-16T19:44:23.628Z,49.70
2023-03-16T19:46:52.321Z,49.90
2023-03-16T19:49:21.815Z,50.10
2023-03-16T19:51:57.639Z,50.30
2023-03-16T19:54:28.346Z,49.90
2023-03-16T19:57:10.187Z,49.90
2023-03-16T19:59:40.490Z,50.00
2023-03-16T20:02:38.127Z,50.20
2023-03-16T20:05:13.699Z,50.90
2023-03-16T20:07:45.305Z,50.30
2023-03-16T20:10:33.156Z,50.30
2023-03-16T20:13:01.004Z,50.60
2023-03-16T20:15:32.423Z,50.60
2023-03-16T20:17:59.996Z,50.80
2023-03-16T20:20:29.446Z,50.70
2023-03-16T20:22:59.529Z,51.10
2023-03-16T20:25:32.225Z,51.10
2023-03-16T20:28:06.123Z,51.10
2023-03-16T20:30:33.370Z,51.00
2023-03-16T20:33:00.829Z,50.90
2023-03-16T20:35:32.166Z,51.00
2023-03-16T20:37:59.648Z,51.00
2023-03-16T20:40:27.057Z,51.00
2023-03-16T20:42:54.257Z,51.60
2023-03-16T20:45:29.081Z,51.30
2023-03-16T20:47:56.800Z,51.40
2023-03-16T20:50:30.780Z,51.50
2023-03-16T20:52:58.064Z,51.70
2023-03-16T20:55:27.157Z,51.60
2023-03-16T20:57:55.416Z,51.50
2023-03-16T21:00:29.496Z,51.40
2023-03-16T21:02:57.011Z,51.60
2023-03-16T21:05:24.648Z,51.50
2023-03-16T21:07:52.849Z,51.60
2023-03-16T21:10:23.648Z,51.70
2023-03-16T21:12:56.112Z,51.70
2023-03-16T21:15:29.547Z,51.90
2023-03-16T21:18:07.969Z,52.10
2023-03-16T21:20:35.951Z,52.20
2023-03-16T21:23:03.496Z,52.10
2023-03-16T21:25:34.341Z,52.30
2023-03-16T21:28:03.617Z,52.50
2023-03-16T21:30:39.640Z,52.50
2023-03-16T21:33:32.009Z,52.60
2023-03-16T21:36:00.269Z,52.50
2023-03-16T21:38:29.204Z,52.50
2023-03-16T21:40:56.557Z,52.50
2023-03-16T21:43:23.918Z,52.70
2023-03-16T21:45:51.980Z,52.90
2023-03-16T21:48:22.330Z,52.90
2023-03-16T21:50:51.387Z,52.80
2023-03-16T21:53:27.239Z,53.20
2023-03-16T21:55:55.055Z,53.30
2023-03-16T21:58:23.548Z,53.10
2023-03-16T22:00:54.543Z,53.30
2023-03-16T22:03:47.737Z,53.30
2023-03-16T22:06:17.211Z,53.30
2023-03-16T22:08:44.474Z,53.30
2023-03-16T22:11:20.492Z,53.40
2023-03-16T22:13:47.875Z,53.50
2023-03-16T22:16:20.883Z,53.50
2023-03-16T22:18:50.133Z,53.80
2023-03-16T22:21:41.173Z,53.70
2023-03-16T22:24:21.702Z,54.20
2023-03-16T22:26:50.873Z,53.90
2023-03-16T22:29:26.413Z,53.80
2023-03-16T22:31:59.478Z,53.70
2023-03-16T22:34:38.257Z,53.60
2023-03-16T22:37:05.688Z,53.60
2023-03-16T22:39:37.766Z,53.70
2023-03-16T22:42:25.107Z,53.90
2023-03-16T22:44:52.316Z,54.10
2023-03-16T22:47:24.631Z,54.40
2023-03-16T22:49:52.107Z,54.70
2023-03-16T22:52:23.837Z,54.40
2023-03-16T22:54:51.036Z,54.20
2023-03-16T22:57:18.153Z,54.00
2023-03-16T22:59:45.339Z,54.00
2023-03-16T23:02:16.122Z,53.90
2023-03-16T23:04:44.480Z,53.90
2023-03-16T23:07:15.745Z,54.00
2023-03-16T23:09:42.968Z,54.20
2023-03-16T23:12:20.372Z,54.30
2023-03-16T23:14:47.700Z,54.80
2023-03-16T23:17:22.326Z,54.60
2023-03-16T23:19:49.741Z,54.60
2023-03-16T23:22:17.024Z,54.60
2023-03-16T23:24:44.267Z,54.70
2023-03-16T23:27:19.567Z,54.70
2023-03-16T23:29:46.816Z,55.00
2023-03-16T23:32:15.394Z,54.70
2023-03-16T23:34:42.636Z,54.50
2023-03-16T23:37:09.901Z,54.60
2023-03-16T23:39:37.106Z,54.80
2023-03-16T23:42:04.607Z,54.80
2023-03-16T23:44:31.848Z,54.90
2023-03-16T23:46:59.312Z,54.70
2023-03-16T23:49:33.337Z,54.60
2023-03-16T23:52:07.406Z,54.70
2023-03-16T23:54:34.660Z,54.60
2023-03-16T23:57:04.437Z,54.60
2023-03-16T23:59:31.639Z,54.20
